Time;durP1;ratioP1;P1;durP2;ratioP2;P2;SDS_P1;SDS_P2;PMS_P1;PMS_P2;Temp;Humidity;BMP_temperature;BMP_pressure;BME280_temperature;BME280_humidity;BME280_pressure;Samples;Min_cycle;Max_cycle;Signal;HPM_P1;HPM_P2
2023/12/26 00:01:12;;;;;;;1.27;0.60;;;11.20;99.90;;;;;;6260039;22;20029;-77
2023/12/26 00:03:40;;;;;;;2.13;0.80;;;11.20;99.90;;;;;;6311367;22;20105;-77
2023/12/26 00:06:07;;;;;;;1.85;0.90;;;11.10;99.90;;;;;;6285515;22;20416;-78
2023/12/26 00:08:34;;;;;;;2.83;1.20;;;11.10;99.90;;;;;;6285233;22;20091;-78
2023/12/26 00:11:02;;;;;;;1.65;0.80;;;11.10;99.90;;;;;;6285243;22;20106;-76
2023/12/26 00:13:29;;;;;;;1.73;1.05;;;11.10;99.90;;;;;;6286368;22;20068;-76
2023/12/26 00:15:56;;;;;;;1.40;0.70;;;11.10;99.90;;;;;;6285356;22;20023;-76
2023/12/26 00:18:23;;;;;;;1.45;0.70;;;11.10;99.90;;;;;;6285322;22;20029;-76
2023/12/26 00:20:51;;;;;;;1.98;0.90;;;11.10;99.90;;;;;;6285809;22;20015;-76
2023/12/26 00:23:18;;;;;;;1.67;0.75;;;11.10;99.90;;;;;;6285299;22;20027;-76
2023/12/26 00:25:46;;;;;;;2.92;0.95;;;11.10;99.90;;;;;;6284978;22;20027;-77
2023/12/26 00:28:15;;;;;;;2.75;0.70;;;11.00;99.90;;;;;;6340162;22;20090;-79
2023/12/26 00:30:43;;;;;;;2.20;1.05;;;11.00;99.90;;;;;;6287025;22;20124;-78
2023/12/26 00:33:10;;;;;;;3.17;0.70;;;11.00;99.90;;;;;;6287267;22;20011;-78
2023/12/26 00:35:37;;;;;;;1.77;0.60;;;11.00;99.90;;;;;;6287554;22;20023;-77
2023/12/26 00:38:04;;;;;;;2.72;0.80;;;10.90;99.90;;;;;;6261949;22;20061;-78
2023/12/26 00:40:31;;;;;;;1.65;0.55;;;10.90;99.90;;;;;;6261703;22;20123;-79
2023/12/26 00:42:58;;;;;;;1.90;0.55;;;10.90;99.90;;;;;;6287324;22;20015;-80
2023/12/26 00:45:25;;;;;;;2.08;0.50;;;10.90;99.90;;;;;;6262574;22;20023;-79
2023/12/26 00:47:54;;;;;;;1.15;0.50;;;10.90;99.90;;;;;;6312053;22;20118;-80
2023/12/26 00:50:21;;;;;;;2.75;0.50;;;10.90;99.90;;;;;;6313728;22;20002;-80
2023/12/26 00:52:49;;;;;;;1.48;0.40;;;10.90;99.90;;;;;;6302770;22;20019;-80
2023/12/26 00:55:16;;;;;;;2.70;0.40;;;10.90;99.90;;;;;;6289108;22;20023;-81
2023/12/26 00:57:45;;;;;;;2.40;0.65;;;10.90;99.90;;;;;;6288018;22;20441;-81
2023/12/26 01:00:12;;;;;;;1.27;0.45;;;10.90;99.90;;;;;;6262528;22;20014;-82
2023/12/26 01:02:39;;;;;;;4.05;0.50;;;10.80;99.90;;;;;;6262672;22;20019;-80
2023/12/26 01:05:07;;;;;;;1.00;0.30;;;10.80;99.90;;;;;;6287443;22;20502;-79
2023/12/26 01:07:34;;;;;;;0.85;0.30;;;10.80;99.90;;;;;;6287104;22;20046;-79
2023/12/26 01:10:04;;;;;;;1.25;0.45;;;10.80;99.90;;;;;;6287563;22;20064;-78
2023/12/26 01:12:32;;;;;;;2.08;0.40;;;10.80;99.90;;;;;;6261996;22;20408;-77
2023/12/26 01:14:59;;;;;;;1.98;0.60;;;10.80;99.90;;;;;;6286882;22;20015;-78
2023/12/26 01:17:26;;;;;;;2.65;1.00;;;10.80;99.90;;;;;;6287197;22;20524;-77
2023/12/26 01:19:53;;;;;;;3.35;2.38;;;10.80;99.90;;;;;;6287261;22;20018;-76
2023/12/26 01:22:20;;;;;;;5.30;2.08;;;10.80;99.90;;;;;;6286915;22;20026;-76
2023/12/26 01:24:50;;;;;;;4.00;2.33;;;10.80;99.90;;;;;;6287083;22;20348;-76
2023/12/26 01:27:17;;;;;;;4.00;2.28;;;10.80;99.90;;;;;;6287270;22;20314;-76
2023/12/26 01:29:46;;;;;;;3.80;2.25;;;10.80;99.90;;;;;;6286979;22;20018;-76
2023/12/26 01:32:13;;;;;;;5.00;2.35;;;10.80;99.90;;;;;;6339735;22;20037;-76
2023/12/26 01:34:40;;;;;;;5.63;2.55;;;10.70;99.90;;;;;;6286898;22;20034;-76
2023/12/26 01:37:07;;;;;;;4.45;2.88;;;10.70;99.90;;;;;;6286263;22;20106;-76
2023/12/26 01:39:34;;;;;;;4.18;2.28;;;10.70;99.90;;;;;;6286231;22;20352;-76
2023/12/26 01:42:01;;;;;;;4.47;2.22;;;10.70;99.90;;;;;;6286586;22;20110;-76
2023/12/26 01:44:28;;;;;;;3.47;1.88;;;10.70;99.90;;;;;;6286552;22;20019;-76
2023/12/26 01:46:55;;;;;;;3.67;1.85;;;10.70;99.90;;;;;;6286552;22;20027;-76
2023/12/26 01:49:22;;;;;;;4.18;1.90;;;10.70;99.90;;;;;;6286353;22;20322;-78
2023/12/26 01:51:51;;;;;;;3.95;1.70;;;10.70;99.90;;;;;;6286361;22;20018;-79
2023/12/26 01:54:22;;;;;;;4.80;1.90;;;10.70;99.90;;;;;;6261465;22;20096;-79
2023/12/26 01:56:49;;;;;;;4.18;1.67;;;10.70;99.90;;;;;;6286319;22;20019;-80
2023/12/26 01:59:17;;;;;;;3.70;1.38;;;10.70;99.90;;;;;;6261108;22;20101;-79
2023/12/26 02:01:44;;;;;;;4.18;1.45;;;10.70;99.90;;;;;;6286253;22;20023;-80
2023/12/26 02:04:11;;;;;;;4.43;1.50;;;10.70;99.90;;;;;;6286308;22;20380;-81
2023/12/26 02:06:39;;;;;;;3.10;1.20;;;10.70;99.90;;;;;;6286169;22;20034;-82
2023/12/26 02:09:10;;;;;;;2.80;1.13;;;10.70;99.90;;;;;;6286439;22;20460;-81
2023/12/26 02:11:38;;;;;;;2.53;1.20;;;10.70;99.90;;;;;;6287724;22;20026;-82
2023/12/26 02:14:06;;;;;;;2.72;1.08;;;10.70;99.90;;;;;;6261434;22;20269;-81
2023/12/26 02:16:37;;;;;;;3.40;1.55;;;10.70;99.90;;;;;;6286415;22;20019;-82
2023/12/26 02:19:04;;;;;;;2.78;1.25;;;10.70;99.90;;;;;;6287001;22;20337;-83
2023/12/26 02:21:32;;;;;;;4.18;1.35;;;10.70;99.90;;;;;;6260927;22;20433;-80
2023/12/26 02:23:59;;;;;;;4.57;1.55;;;10.70;99.90;;;;;;6260696;22;20042;-79
2023/12/26 02:26:28;;;;;;;5.22;1.58;;;10.70;99.90;;;;;;6285837;22;20022;-79
2023/12/26 02:28:56;;;;;;;4.30;1.52;;;10.70;99.90;;;;;;6285826;22;20349;-79
2023/12/26 02:31:25;;;;;;;5.40;1.55;;;10.70;99.90;;;;;;6286067;22;20019;-79
2023/12/26 02:33:52;;;;;;;6.30;1.80;;;10.70;99.90;;;;;;6286425;22;20019;-78
2023/12/26 02:36:20;;;;;;;2.47;1.15;;;10.70;99.90;;;;;;6312016;22;20443;-82
2023/12/26 02:38:47;;;;;;;3.30;1.00;;;10.70;99.90;;;;;;6312242;22;20021;-82
2023/12/26 02:41:14;;;;;;;2.95;1.40;;;10.70;99.90;;;;;;6286011;22;20088;-81
2023/12/26 02:43:42;;;;;;;2.20;1.00;;;10.70;99.90;;;;;;6261018;22;20068;-81
2023/12/26 02:46:09;;;;;;;2.53;0.90;;;10.80;99.90;;;;;;6286057;22;20019;-80
2023/12/26 02:48:36;;;;;;;2.85;0.90;;;10.70;99.90;;;;;;6285647;22;20015;-80
2023/12/26 02:51:03;;;;;;;3.03;1.10;;;10.80;99.90;;;;;;6285600;22;20042;-81
2023/12/26 02:53:30;;;;;;;2.88;0.82;;;10.80;99.90;;;;;;6285853;22;20038;-80
2023/12/26 02:55:57;;;;;;;3.45;0.80;;;10.80;99.90;;;;;;6260366;22;20445;-81
2023/12/26 02:58:24;;;;;;;1.30;0.50;;;10.70;99.90;;;;;;6285612;22;20023;-80
2023/12/26 03:00:52;;;;;;;2.05;0.45;;;10.70;99.90;;;;;;6260704;22;20501;-81
2023/12/26 03:03:20;;;;;;;1.45;0.40;;;10.60;99.90;;;;;;6260770;22;20033;-80
2023/12/26 03:05:47;;;;;;;2.50;0.50;;;10.50;99.90;;;;;;6285949;22;20096;-80
2023/12/26 03:08:14;;;;;;;2.45;0.73;;;10.40;99.90;;;;;;6285313;22;20093;-80
2023/12/26 03:10:41;;;;;;;1.42;0.40;;;10.40;99.90;;;;;;6285629;22;20125;-80
2023/12/26 03:13:08;;;;;;;2.25;0.70;;;10.50;99.90;;;;;;6285394;22;20033;-80
2023/12/26 03:15:35;;;;;;;6.82;1.45;;;10.50;99.90;;;;;;6285536;22;20018;-80
2023/12/26 03:18:02;;;;;;;2.25;0.77;;;10.50;99.90;;;;;;6285705;22;20025;-80
2023/12/26 03:20:30;;;;;;;5.45;1.25;;;10.60;99.90;;;;;;6286151;22;20026;-80
2023/12/26 03:22:57;;;;;;;6.55;1.10;;;10.60;99.90;;;;;;6285525;22;20294;-80
2023/12/26 03:25:25;;;;;;;4.22;1.10;;;10.60;99.90;;;;;;6285436;22;20027;-79
2023/12/26 03:27:52;;;;;;;6.43;1.27;;;10.70;99.90;;;;;;6285663;22;20018;-80
2023/12/26 03:30:19;;;;;;;7.13;0.95;;;10.70;99.90;;;;;;6285379;22;20019;-79
2023/12/26 03:32:46;;;;;;;7.90;1.30;;;10.60;99.90;;;;;;6260208;22;20453;-79
2023/12/26 03:35:13;;;;;;;3.40;0.80;;;10.60;99.90;;;;;;6260085;22;20022;-79
2023/12/26 03:37:40;;;;;;;5.00;0.85;;;10.60;99.90;;;;;;6280547;22;20027;-79
2023/12/26 03:40:08;;;;;;;8.30;1.00;;;10.60;99.90;;;;;;6280074;22;20392;-79
2023/12/26 03:42:35;;;;;;;3.47;0.77;;;10.60;99.90;;;;;;6279958;22;20019;-79
2023/12/26 03:45:04;;;;;;;4.22;0.90;;;10.60;99.90;;;;;;6280366;22;20023;-79
2023/12/26 03:47:31;;;;;;;6.93;0.88;;;10.60;99.90;;;;;;6279973;22;20022;-79
2023/12/26 03:49:58;;;;;;;6.03;1.00;;;10.50;99.90;;;;;;6280539;22;20016;-79
2023/12/26 03:52:26;;;;;;;5.68;0.90;;;10.50;99.90;;;;;;6304706;22;20030;-78
2023/12/26 03:54:56;;;;;;;1.92;0.50;;;10.50;99.90;;;;;;6279902;22;20098;-78
2023/12/26 03:57:23;;;;;;;2.85;1.08;;;10.50;99.90;;;;;;6280060;22;20453;-78
2023/12/26 03:59:51;;;;;;;7.15;1.13;;;10.50;99.90;;;;;;6254839;22;20408;-78
2023/12/26 04:02:18;;;;;;;6.05;1.08;;;10.50;99.90;;;;;;6280971;22;20019;-78
2023/12/26 04:04:46;;;;;;;5.82;0.98;;;10.50;99.90;;;;;;6281666;22;20030;-78
2023/12/26 04:07:13;;;;;;;7.65;0.80;;;10.50;99.90;;;;;;6281764;22;20372;-77
2023/12/26 04:09:40;;;;;;;7.97;1.08;;;10.50;99.90;;;;;;6282082;22;20019;-77
2023/12/26 04:12:08;;;;;;;6.60;0.75;;;10.50;99.90;;;;;;6281840;22;20046;-77
2023/12/26 04:14:35;;;;;;;3.08;0.80;;;10.50;99.90;;;;;;6281865;22;20733;-77
2023/12/26 04:17:02;;;;;;;4.30;0.88;;;10.50;99.90;;;;;;6281949;22;20027;-77
2023/12/26 04:19:29;;;;;;;4.13;0.77;;;10.50;99.90;;;;;;6281753;22;20023;-76
2023/12/26 04:21:57;;;;;;;4.13;0.60;;;10.50;99.90;;;;;;6281989;22;20025;-76
2023/12/26 04:24:24;;;;;;;5.22;0.60;;;10.40;99.90;;;;;;6281747;22;20019;-76
2023/12/26 04:26:51;;;;;;;4.65;0.63;;;10.30;99.90;;;;;;6256336;22;20019;-76
2023/12/26 04:29:18;;;;;;;6.15;1.10;;;10.30;99.90;;;;;;6281873;22;20442;-76
2023/12/26 04:31:45;;;;;;;2.97;0.70;;;10.20;99.90;;;;;;6281885;22;20020;-76
2023/12/26 04:34:12;;;;;;;4.75;0.70;;;10.20;99.90;;;;;;6281979;22;20022;-76
2023/12/26 04:36:39;;;;;;;5.13;1.08;;;10.10;99.90;;;;;;6263860;22;20035;-76
2023/12/26 04:39:06;;;;;;;5.05;0.82;;;10.10;99.90;;;;;;6308845;22;20007;-76
2023/12/26 04:41:34;;;;;;;7.00;0.88;;;10.00;99.90;;;;;;6283616;22;20026;-76
2023/12/26 04:44:02;;;;;;;5.13;0.70;;;10.00;99.90;;;;;;6265742;22;20018;-75
2023/12/26 04:46:29;;;;;;;3.90;0.55;;;9.90;99.90;;;;;;6283482;22;20022;-76
2023/12/26 04:48:56;;;;;;;3.28;0.50;;;9.80;99.90;;;;;;6257142;22;20045;-76
2023/12/26 04:51:25;;;;;;;2.42;0.30;;;9.80;99.90;;;;;;6307939;22;20019;-76
2023/12/26 04:53:52;;;;;;;2.38;0.30;;;9.70;99.90;;;;;;6257459;22;20098;-76
2023/12/26 04:56:20;;;;;;;3.30;0.95;;;9.70;99.90;;;;;;6281985;22;20019;-76
2023/12/26 04:58:50;;;;;;;2.00;0.45;;;9.60;99.90;;;;;;6307515;22;20468;-76
2023/12/26 05:01:18;;;;;;;4.47;0.50;;;9.60;99.90;;;;;;6256782;22;20023;-76
2023/12/26 05:03:47;;;;;;;3.35;0.50;;;9.60;99.90;;;;;;6281682;22;20023;-76
2023/12/26 05:06:18;;;;;;;5.75;0.85;;;9.60;99.90;;;;;;6256800;22;20029;-76
2023/12/26 05:08:46;;;;;;;4.03;0.68;;;9.50;99.90;;;;;;6307507;22;20019;-75
2023/12/26 05:11:24;;;;;;;3.40;0.63;;;9.50;99.90;;;;;;6281912;22;20070;-75
2023/12/26 05:13:52;;;;;;;3.03;0.50;;;9.50;99.90;;;;;;6306846;22;20380;-76
2023/12/26 05:16:20;;;;;;;5.40;0.70;;;9.50;99.90;;;;;;6281900;22;20065;-76
2023/12/26 05:18:47;;;;;;;6.22;0.80;;;9.40;99.90;;;;;;6281682;22;20023;-75
2023/12/26 05:21:22;;;;;;;1.83;0.50;;;9.40;99.90;;;;;;6281549;22;20449;-76
2023/12/26 05:23:50;;;;;;;3.40;0.60;;;9.40;99.90;;;;;;6257461;22;20015;-75
2023/12/26 05:26:17;;;;;;;4.68;0.52;;;9.40;99.90;;;;;;6281665;22;20475;-76
2023/12/26 05:28:46;;;;;;;9.57;1.30;;;9.40;99.90;;;;;;6256535;22;20039;-76
2023/12/26 05:31:17;;;;;;;1.10;0.30;;;9.40;99.90;;;;;;6255673;22;20102;-75
2023/12/26 05:33:44;;;;;;;5.57;0.50;;;9.30;99.90;;;;;;6281296;22;20352;-76
2023/12/26 05:36:12;;;;;;;4.22;0.65;;;9.30;99.90;;;;;;6286514;22;20391;-76
2023/12/26 05:38:39;;;;;;;9.50;1.45;;;9.30;99.90;;;;;;6286808;22;20416;-75
2023/12/26 05:41:07;;;;;;;4.38;0.80;;;9.30;99.90;;;;;;6286856;22;20018;-76
2023/12/26 05:43:35;;;;;;;7.70;1.02;;;9.40;99.90;;;;;;6312061;22;20448;-76
2023/12/26 05:46:02;;;;;;;3.17;0.63;;;9.40;99.90;;;;;;6261020;22;20109;-75
2023/12/26 05:48:29;;;;;;;5.82;0.57;;;9.40;99.90;;;;;;6312385;22;20015;-75
2023/12/26 05:50:57;;;;;;;5.68;0.98;;;9.40;99.90;;;;;;6261285;22;20014;-75
2023/12/26 05:53:29;;;;;;;5.30;1.20;;;9.40;99.90;;;;;;6260808;22;20023;-75
2023/12/26 05:55:57;;;;;;;3.97;0.60;;;9.30;99.90;;;;;;6286489;22;20022;-75
2023/12/26 05:58:25;;;;;;;5.22;0.70;;;9.30;99.90;;;;;;6311955;22;20045;-75
2023/12/26 06:00:53;;;;;;;4.40;0.80;;;9.20;99.90;;;;;;6312308;22;20045;-75
2023/12/26 06:03:20;;;;;;;5.43;0.50;;;9.20;99.90;;;;;;6312049;22;20022;-75
2023/12/26 06:05:47;;;;;;;4.68;0.98;;;9.10;99.90;;;;;;6286069;22;20029;-75
2023/12/26 06:08:15;;;;;;;4.07;0.40;;;9.00;99.90;;;;;;6286196;22;20064;-75
2023/12/26 06:10:43;;;;;;;4.43;0.40;;;9.00;99.90;;;;;;6311682;22;20019;-76
2023/12/26 06:13:11;;;;;;;6.00;0.70;;;9.00;99.90;;;;;;6337719;22;20015;-75
2023/12/26 06:15:38;;;;;;;4.88;0.88;;;8.90;99.90;;;;;;6286483;22;20068;-75
2023/12/26 06:18:05;;;;;;;4.05;0.40;;;8.90;99.90;;;;;;6312164;22;20030;-75
2023/12/26 06:20:32;;;;;;;5.10;0.80;;;8.90;99.90;;;;;;6261120;22;20500;-75
2023/12/26 06:22:59;;;;;;;7.15;0.75;;;8.80;99.90;;;;;;6261002;22;20023;-75
2023/12/26 06:25:26;;;;;;;5.95;0.80;;;8.80;99.90;;;;;;6285817;22;20387;-75
2023/12/26 06:27:53;;;;;;;3.95;0.88;;;8.80;99.90;;;;;;6311588;22;20019;-75
2023/12/26 06:30:20;;;;;;;4.22;0.70;;;8.70;99.90;;;;;;6261104;22;20011;-75
2023/12/26 06:32:48;;;;;;;6.40;0.52;;;8.70;99.90;;;;;;6311819;22;20026;-75
2023/12/26 06:35:15;;;;;;;9.07;1.35;;;8.70;99.90;;;;;;6285984;22;20014;-75
2023/12/26 06:37:42;;;;;;;5.93;0.60;;;8.70;99.90;;;;;;6285835;22;20029;-75
2023/12/26 06:40:09;;;;;;;3.50;0.50;;;8.70;99.90;;;;;;6286161;22;20109;-75
2023/12/26 06:42:37;;;;;;;5.50;0.65;;;8.70;99.90;;;;;;6286184;22;20440;-75
2023/12/26 06:45:04;;;;;;;4.82;0.45;;;8.60;99.90;;;;;;6312020;22;20038;-75
2023/12/26 06:47:32;;;;;;;9.45;0.90;;;8.60;99.90;;;;;;6255529;22;20034;-75
2023/12/26 06:49:59;;;;;;;4.18;0.63;;;8.60;99.90;;;;;;6279301;22;20112;-75
2023/12/26 06:52:27;;;;;;;3.85;0.50;;;8.50;99.90;;;;;;6286215;22;20080;-75
2023/12/26 06:54:54;;;;;;;6.28;0.88;;;8.50;99.90;;;;;;6285747;22;20030;-75
2023/12/26 06:57:21;;;;;;;3.92;0.70;;;8.50;99.90;;;;;;6285952;22;20023;-75
2023/12/26 06:59:52;;;;;;;4.55;0.50;;;8.50;99.90;;;;;;6285812;22;20025;-75
2023/12/26 07:02:19;;;;;;;4.20;0.60;;;8.50;99.90;;;;;;6311893;22;20041;-75
2023/12/26 07:04:46;;;;;;;4.35;0.60;;;8.40;99.90;;;;;;6285639;22;20019;-75
2023/12/26 07:07:13;;;;;;;5.38;0.60;;;8.50;99.90;;;;;;6285728;22;20025;-75
2023/12/26 07:09:40;;;;;;;5.80;1.20;;;8.40;99.90;;;;;;6311589;22;20077;-75
2023/12/26 07:12:07;;;;;;;4.78;0.57;;;8.50;99.90;;;;;;6285724;22;20026;-75
2023/12/26 07:14:34;;;;;;;3.83;0.43;;;8.40;99.90;;;;;;6311606;22;20015;-75
2023/12/26 07:17:01;;;;;;;3.53;0.75;;;8.40;99.90;;;;;;6285626;22;20433;-75
2023/12/26 07:19:28;;;;;;;10.75;0.68;;;8.40;99.90;;;;;;6285486;22;20029;-74
2023/12/26 07:21:55;;;;;;;4.30;0.60;;;8.40;99.90;;;;;;6285824;22;20018;-75
2023/12/26 07:24:22;;;;;;;6.10;0.60;;;8.40;99.90;;;;;;6260000;22;20030;-74
2023/12/26 07:26:49;;;;;;;6.25;1.20;;;8.40;99.90;;;;;;6311500;22;20071;-75
2023/12/26 07:29:17;;;;;;;4.95;0.88;;;8.30;99.90;;;;;;6285639;22;20014;-74
2023/12/26 07:31:44;;;;;;;4.75;1.02;;;8.30;99.90;;;;;;6260269;22;20023;-75
2023/12/26 07:34:11;;;;;;;5.68;0.52;;;8.20;99.90;;;;;;6285796;22;20015;-74
2023/12/26 07:36:39;;;;;;;4.80;0.65;;;8.20;99.90;;;;;;6310457;22;20023;-74
2023/12/26 07:39:06;;;;;;;4.40;0.80;;;8.20;99.90;;;;;;6311285;22;20023;-74
2023/12/26 07:41:33;;;;;;;7.88;1.02;;;8.10;99.90;;;;;;6285771;22;20018;-74
2023/12/26 07:44:00;;;;;;;4.60;0.50;;;8.10;99.90;;;;;;6285429;22;20045;-74
2023/12/26 07:46:27;;;;;;;7.80;1.15;;;8.00;99.90;;;;;;6311214;22;20094;-75
2023/12/26 07:48:54;;;;;;;5.05;0.85;;;8.10;99.90;;;;;;6311121;22;20084;-74
2023/12/26 07:51:22;;;;;;;8.75;0.93;;;8.00;99.90;;;;;;6311161;22;20019;-74
2023/12/26 07:53:49;;;;;;;5.35;0.68;;;8.00;99.90;;;;;;6285505;22;20019;-74
2023/12/26 07:56:16;;;;;;;7.85;0.93;;;8.00;99.90;;;;;;6338489;22;20498;-74
2023/12/26 07:58:44;;;;;;;4.38;0.75;;;8.00;99.90;;;;;;6284938;22;20019;-74
2023/12/26 08:01:13;;;;;;;5.38;1.08;;;8.00;99.90;;;;;;6310947;22;20046;-74
2023/12/26 08:03:40;;;;;;;6.72;0.93;;;8.00;99.90;;;;;;6338557;22;20019;-74
2023/12/26 08:06:07;;;;;;;5.95;1.08;;;8.00;99.90;;;;;;6311142;22;20015;-74
2023/12/26 08:08:35;;;;;;;7.10;0.70;;;8.00;99.90;;;;;;6310960;22;20527;-74
2023/12/26 08:11:02;;;;;;;2.95;0.55;;;8.00;99.90;;;;;;6311253;22;20015;-75
2023/12/26 08:13:29;;;;;;;5.55;0.77;;;8.10;99.90;;;;;;6285541;22;20018;-74
2023/12/26 08:15:56;;;;;;;8.82;0.80;;;8.10;99.90;;;;;;6285364;22;20042;-74
2023/12/26 08:18:23;;;;;;;8.73;0.75;;;8.20;99.90;;;;;;6311221;22;20025;-74
2023/12/26 08:20:50;;;;;;;5.97;0.77;;;8.30;99.90;;;;;;6311068;22;20019;-75
2023/12/26 08:23:17;;;;;;;4.70;0.60;;;8.30;99.90;;;;;;6285156;22;20064;-75
2023/12/26 08:25:44;;;;;;;3.92;0.60;;;8.30;99.90;;;;;;6311108;22;20025;-74
2023/12/26 08:28:12;;;;;;;6.70;0.73;;;8.40;99.90;;;;;;6311167;22;20015;-75
2023/12/26 08:30:39;;;;;;;4.93;0.73;;;8.40;99.90;;;;;;6315417;22;20045;-73
2023/12/26 08:33:06;;;;;;;4.63;0.60;;;8.50;99.90;;;;;;6304512;22;20015;-75
2023/12/26 08:35:34;;;;;;;5.97;0.80;;;8.50;99.90;;;;;;6304895;22;20071;-74
2023/12/26 08:38:01;;;;;;;7.28;0.82;;;8.50;99.90;;;;;;6292647;22;20098;-73
2023/12/26 08:40:28;;;;;;;4.95;1.17;;;8.50;99.90;;;;;;6286562;22;20023;-73
2023/12/26 08:42:55;;;;;;;2.75;0.50;;;8.50;99.90;;;;;;6311650;22;20015;-73
2023/12/26 08:45:22;;;;;;;6.35;1.10;;;8.50;99.90;;;;;;6312010;22;20015;-74
2023/12/26 08:47:52;;;;;;;4.03;0.50;;;8.40;99.90;;;;;;6286105;22;20048;-74
2023/12/26 08:50:20;;;;;;;3.50;0.50;;;8.40;99.90;;;;;;6313010;22;20019;-75
2023/12/26 08:52:47;;;;;;;2.40;0.40;;;8.40;99.90;;;;;;6313181;22;20019;-74
2023/12/26 08:55:15;;;;;;;4.10;0.90;;;8.40;99.90;;;;;;6287209;22;20023;-74
2023/12/26 08:57:42;;;;;;;4.50;0.60;;;8.30;99.90;;;;;;6340234;22;20440;-74
2023/12/26 09:00:12;;;;;;;2.88;0.80;;;8.30;99.90;;;;;;6261559;22;20023;-75
2023/12/26 09:02:43;;;;;;;5.78;0.80;;;8.30;99.90;;;;;;6262387;22;20018;-74
2023/12/26 09:05:25;;;;;;;6.43;0.90;;;8.40;99.90;;;;;;6294389;22;20456;-75
2023/12/26 09:07:52;;;;;;;6.88;1.05;;;8.30;99.90;;;;;;6312608;22;20034;-74
2023/12/26 09:10:19;;;;;;;8.60;0.95;;;8.30;99.90;;;;;;6312873;22;20072;-71
2023/12/26 09:12:46;;;;;;;4.00;0.52;;;8.30;99.90;;;;;;6312587;22;20081;-72
2023/12/26 09:15:14;;;;;;;6.97;0.90;;;8.40;99.90;;;;;;6312376;22;20330;-72
2023/12/26 09:17:42;;;;;;;6.03;0.95;;;8.40;99.90;;;;;;6312452;22;20015;-72
2023/12/26 09:20:10;;;;;;;6.40;1.25;;;8.40;99.90;;;;;;6312188;22;20467;-71
2023/12/26 09:22:37;;;;;;;8.65;1.40;;;8.40;99.90;;;;;;6286870;22;20046;-74
2023/12/26 09:25:07;;;;;;;8.40;0.80;;;8.40;99.90;;;;;;6286477;22;20452;-74
2023/12/26 09:27:34;;;;;;;6.82;1.40;;;8.50;99.90;;;;;;6269452;22;20745;-74
2023/12/26 09:30:01;;;;;;;4.00;0.70;;;8.40;99.90;;;;;;6255825;22;20026;-74
2023/12/26 09:32:29;;;;;;;5.95;0.70;;;8.40;99.90;;;;;;6286924;22;20386;-73
2023/12/26 09:34:56;;;;;;;3.97;0.55;;;8.40;99.90;;;;;;6339688;22;20467;-74
2023/12/26 09:37:23;;;;;;;5.70;0.70;;;8.40;99.90;;;;;;6310705;22;20015;-74
2023/12/26 09:39:50;;;;;;;7.22;0.85;;;8.40;99.90;;;;;;6286644;22;20452;-74
2023/12/26 09:42:24;;;;;;;5.40;0.68;;;8.50;99.90;;;;;;6261271;22;20453;-75
2023/12/26 09:44:52;;;;;;;6.18;0.75;;;8.40;99.90;;;;;;6339540;22;20095;-74
2023/12/26 09:47:21;;;;;;;9.45;1.58;;;8.50;99.90;;;;;;6312166;22;20072;-74
2023/12/26 09:49:50;;;;;;;4.28;0.52;;;8.50;99.90;;;;;;6261262;22;20015;-82
2023/12/26 09:52:17;;;;;;;8.98;1.13;;;8.60;99.90;;;;;;6311708;22;20014;-72
2023/12/26 09:54:46;;;;;;;7.47;0.80;;;8.70;99.90;;;;;;6286170;22;20022;-72
2023/12/26 09:57:15;;;;;;;7.70;1.30;;;8.70;99.90;;;;;;6339261;22;20015;-72
2023/12/26 09:59:42;;;;;;;7.97;1.10;;;8.80;99.90;;;;;;6311300;22;20052;-72
2023/12/26 10:02:13;;;;;;;5.18;1.02;;;8.80;99.90;;;;;;6339257;22;20441;-72
2023/12/26 10:04:41;;;;;;;8.52;1.23;;;8.80;99.90;;;;;;6339367;22;20042;-74
2023/12/26 10:07:09;;;;;;;9.80;1.35;;;8.80;99.90;;;;;;6339076;22;20094;-71
2023/12/26 10:09:36;;;;;;;6.93;0.90;;;8.90;99.90;;;;;;6311862;22;20017;-71
2023/12/26 10:12:04;;;;;;;7.85;1.02;;;8.90;99.90;;;;;;6285814;22;20395;-72
2023/12/26 10:14:36;;;;;;;7.45;1.23;;;8.90;99.90;;;;;;6312498;22;20093;-72
2023/12/26 10:17:06;;;;;;;7.25;1.08;;;8.90;99.90;;;;;;6311955;22;20018;-72
2023/12/26 10:19:33;;;;;;;14.38;1.08;;;9.00;99.90;;;;;;6311421;22;20026;-72
2023/12/26 10:22:02;;;;;;;7.70;1.38;;;9.00;99.90;;;;;;6286134;22;20018;-71
2023/12/26 10:24:29;;;;;;;8.75;1.40;;;9.00;99.90;;;;;;6311324;22;20018;-71
2023/12/26 10:26:59;;;;;;;6.68;0.73;;;9.00;99.90;;;;;;6311663;22;20015;-74
2023/12/26 10:29:26;;;;;;;8.27;0.88;;;9.00;99.90;;;;;;6311396;22;20387;-74
2023/12/26 10:31:53;;;;;;;11.25;1.38;;;9.00;99.90;;;;;;6311380;22;20348;-74
2023/12/26 10:34:20;;;;;;;8.40;1.63;;;9.00;99.90;;;;;;6311189;22;20018;-74
2023/12/26 10:36:50;;;;;;;6.60;1.05;;;9.10;99.90;;;;;;6285935;22;20041;-73
2023/12/26 10:39:17;;;;;;;10.57;1.30;;;9.10;99.90;;;;;;6285604;22;20026;-73
2023/12/26 10:41:46;;;;;;;11.27;1.10;;;9.10;99.90;;;;;;6286336;22;20014;-73
2023/12/26 10:44:15;;;;;;;10.90;2.05;;;9.10;99.90;;;;;;6285698;22;20446;-72
2023/12/26 10:46:43;;;;;;;7.75;1.17;;;9.20;99.90;;;;;;6311407;22;20022;-73
2023/12/26 10:49:15;;;;;;;9.18;1.23;;;9.20;99.90;;;;;;6286235;22;20065;-73
2023/12/26 10:51:45;;;;;;;6.53;0.98;;;9.20;99.90;;;;;;6311422;22;20090;-73
2023/12/26 10:54:20;;;;;;;11.55;1.20;;;9.20;99.90;;;;;;6261080;22;20019;-73
2023/12/26 10:56:49;;;;;;;10.63;2.40;;;9.30;99.90;;;;;;6285599;22;20416;-73
2023/12/26 13:53:51;;;;;;;4.78;1.25;;;9.80;95.50;;;;;;6339933;22;20033;-77
2023/12/26 13:56:56;;;;;;;4.53;0.70;;;9.80;95.50;;;;;;6312577;22;20015;-75
2023/12/26 14:00:01;;;;;;;5.70;0.68;;;9.80;95.90;;;;;;6311910;22;20512;-72
2023/12/26 14:03:15;;;;;;;5.45;0.80;;;9.80;96.10;;;;;;6339098;22;20023;-73
2023/12/26 14:06:19;;;;;;;2.33;0.65;;;9.80;96.10;;;;;;6296009;22;20026;-73
2023/12/26 14:09:24;;;;;;;4.45;0.55;;;9.80;96.30;;;;;;6311438;22;20405;-73
2023/12/26 14:12:29;;;;;;;7.40;0.65;;;9.80;96.30;;;;;;6280477;22;20019;-72
2023/12/26 14:15:33;;;;;;;5.30;0.50;;;9.80;96.30;;;;;;6325109;22;20045;-72
2023/12/26 14:18:40;;;;;;;3.78;0.40;;;9.70;95.90;;;;;;6311546;22;20025;-72
2023/12/26 14:21:45;;;;;;;4.97;1.13;;;9.70;96.00;;;;;;6286245;22;20494;-72
2023/12/26 14:24:50;;;;;;;5.63;0.57;;;9.70;96.10;;;;;;6311707;22;20027;-73
2023/12/26 14:27:56;;;;;;;4.45;1.08;;;9.70;96.00;;;;;;6306273;22;20023;-75
2023/12/26 14:31:01;;;;;;;3.30;0.50;;;9.60;96.10;;;;;;6285639;22;20341;-73
2023/12/26 14:34:06;;;;;;;5.50;1.77;;;9.60;96.00;;;;;;6311248;22;20023;-73
2023/12/26 14:37:11;;;;;;;6.53;1.02;;;9.60;95.90;;;;;;6285379;22;20436;-73
2023/12/26 14:40:15;;;;;;;6.15;1.25;;;9.60;95.80;;;;;;6338830;22;20437;-73
2023/12/26 14:43:20;;;;;;;3.83;0.57;;;9.60;95.70;;;;;;6339036;22;20019;-73
2023/12/26 14:46:24;;;;;;;7.10;0.98;;;9.50;95.70;;;;;;6338870;22;20026;-73
2023/12/26 14:49:29;;;;;;;6.10;0.95;;;9.50;95.80;;;;;;6297942;22;20023;-73
2023/12/26 14:52:34;;;;;;;3.05;1.17;;;9.50;95.80;;;;;;6303711;22;20357;-73
2023/12/26 14:55:38;;;;;;;5.95;0.65;;;9.50;95.80;;;;;;6306658;22;20023;-82
2023/12/26 14:58:43;;;;;;;5.10;0.85;;;9.50;95.80;;;;;;6280817;22;20073;-74
2023/12/26 15:01:48;;;;;;;6.22;1.00;;;9.50;96.20;;;;;;6334884;22;20015;-85
2023/12/26 15:04:15;;;;;;;3.30;0.82;;;9.50;95.90;;;;;;6311424;22;20105;-80
2023/12/26 15:06:45;;;;;;;6.40;0.88;;;9.40;96.10;;;;;;6260594;22;20022;-79
2023/12/26 15:09:12;;;;;;;5.50;0.60;;;9.40;96.20;;;;;;6311039;22;20022;-77
2023/12/26 15:11:40;;;;;;;4.35;0.50;;;9.40;96.20;;;;;;6260785;22;20021;-80
2023/12/26 15:14:11;;;;;;;7.55;1.92;;;9.40;96.40;;;;;;6286029;22;20019;-75
2023/12/26 15:16:58;;;;;;;4.00;0.80;;;9.40;96.40;;;;;;6278153;22;20060;-81
2023/12/26 15:19:25;;;;;;;5.13;0.70;;;9.40;96.40;;;;;;6310981;22;20057;-78
2023/12/26 15:21:54;;;;;;;4.65;0.80;;;9.40;96.30;;;;;;6286067;22;20353;-78
2023/12/26 15:24:21;;;;;;;2.90;0.70;;;9.40;96.40;;;;;;6285707;22;20019;-76
2023/12/26 15:26:49;;;;;;;3.80;1.20;;;9.40;96.60;;;;;;6281370;22;20019;-83
2023/12/26 15:29:55;;;;;;;2.92;0.70;;;9.40;96.70;;;;;;6284315;22;20043;-89
2023/12/26 15:32:27;;;;;;;6.25;0.90;;;9.40;96.70;;;;;;6287237;22;20042;-85
2023/12/26 15:35:04;;;;;;;2.60;0.57;;;9.40;96.70;;;;;;6280633;22;20070;-82
2023/12/26 15:37:32;;;;;;;7.15;1.25;;;9.40;96.80;;;;;;6280654;22;20023;-82
2023/12/26 15:39:59;;;;;;;5.75;1.00;;;9.30;96.90;;;;;;6280345;22;20019;-82
2023/12/26 15:43:07;;;;;;;3.47;0.75;;;9.30;96.80;;;;;;6281615;22;20030;-93
2023/12/26 15:46:18;;;;;;;3.50;0.70;;;9.30;96.70;;;;;;6307696;22;20030;-91
2023/12/26 15:48:50;;;;;;;2.40;0.60;;;9.30;96.90;;;;;;6307617;22;20025;-90
2023/12/26 15:51:19;;;;;;;3.97;0.85;;;9.30;97.00;;;;;;6306859;22;20065;-89
2023/12/26 15:53:53;;;;;;;3.17;1.05;;;9.30;97.10;;;;;;6281586;22;20041;-92
2023/12/26 15:56:33;;;;;;;4.63;0.93;;;9.30;97.20;;;;;;6257192;22;20028;-92
2023/12/26 15:59:00;;;;;;;4.38;0.70;;;9.30;97.30;;;;;;6257728;22;20045;-89
2023/12/26 16:01:28;;;;;;;4.85;1.20;;;9.20;97.40;;;;;;6283520;22;20097;-88
2023/12/26 16:03:55;;;;;;;5.80;1.52;;;9.20;97.50;;;;;;6308935;22;20517;-87
2023/12/26 16:06:32;;;;;;;4.15;0.93;;;9.20;97.50;;;;;;6283376;22;20019;-91